Time;durP1;ratioP1;P1;durP2;ratioP2;P2;SDS_P1;SDS_P2;PMS_P1;PMS_P2;Temp;Humidity;BMP_temperature;BMP_pressure;BME280_temperature;BME280_humidity;BME280_pressure;Samples;Min_cycle;Max_cycle;Signal;HPM_P1;HPM_P2
2023/04/20 00:01:20;;;;;;;4.80;3.87;;;;;;;;;;4994537;28;20447;-92
2023/04/20 00:03:46;;;;;;;4.90;3.00;;;;;;;;;;5001606;28;20446;-91
2023/04/20 00:06:12;;;;;;;4.30;2.93;;;;;;;;;;5003310;28;20927;-90
2023/04/20 00:08:38;;;;;;;5.20;3.13;;;;;;;;;;5002868;28;21075;-91
2023/04/20 00:11:05;;;;;;;3.30;3.00;;;;;;;;;;5012714;28;20994;-91
2023/04/20 00:13:32;;;;;;;3.70;3.33;;;;;;;;;;5009602;28;20443;-90
2023/04/20 00:15:58;;;;;;;4.03;3.40;;;;;;;;;;5006736;28;20458;-90
2023/04/20 00:18:24;;;;;;;4.10;3.70;;;;;;;;;;5024281;28;20905;-90
2023/04/20 00:20:50;;;;;;;4.60;3.37;;;;;;;;;;5007216;28;20434;-91
2023/04/20 00:23:16;;;;;;;8.33;3.90;;;;;;;;;;5005085;28;20457;-90
2023/04/20 00:25:42;;;;;;;4.00;2.80;;;;;;;;;;5013709;28;20435;-90
2023/04/20 00:28:08;;;;;;;6.03;3.20;;;;;;;;;;5016579;28;20443;-91
2023/04/20 00:30:34;;;;;;;8.43;3.37;;;;;;;;;;5004668;28;20491;-91
2023/04/20 00:33:00;;;;;;;5.30;3.67;;;;;;;;;;5003675;28;20427;-91
2023/04/20 00:35:26;;;;;;;5.40;3.60;;;;;;;;;;5006011;28;20462;-91
2023/04/20 00:37:53;;;;;;;6.73;4.40;;;;;;;;;;5001755;28;20423;-91
2023/04/20 00:40:19;;;;;;;4.30;3.90;;;;;;;;;;5006067;28;20423;-91
2023/04/20 00:42:45;;;;;;;6.70;4.50;;;;;;;;;;5002800;28;20435;-92
2023/04/20 00:45:11;;;;;;;5.17;4.37;;;;;;;;;;5004905;28;20427;-92
2023/04/20 00:47:37;;;;;;;4.37;3.90;;;;;;;;;;5002118;28;20431;-91
2023/04/20 00:50:03;;;;;;;6.13;4.03;;;;;;;;;;5022745;28;20451;-91
2023/04/20 00:52:30;;;;;;;4.53;3.60;;;;;;;;;;5009085;28;20416;-91
2023/04/20 00:54:56;;;;;;;4.47;3.67;;;;;;;;;;5003713;28;20438;-91
2023/04/20 00:57:22;;;;;;;7.97;4.23;;;;;;;;;;5008944;28;20411;-91
2023/04/20 00:59:49;;;;;;;5.37;4.30;;;;;;;;;;5008500;28;20434;-91
2023/04/20 01:02:17;;;;;;;4.20;3.37;;;;;;;;;;5005651;28;20442;-91
2023/04/20 01:04:43;;;;;;;4.07;3.67;;;;;;;;;;5008655;28;20429;-91
2023/04/20 01:07:09;;;;;;;5.57;4.10;;;;;;;;;;5012934;28;20443;-91
2023/04/20 01:09:37;;;;;;;3.87;3.47;;;;;;;;;;5013556;28;20442;-91
2023/04/20 01:12:03;;;;;;;3.93;3.43;;;;;;;;;;5006961;28;20522;-91
2023/04/20 01:14:29;;;;;;;5.60;3.40;;;;;;;;;;4998664;28;20455;-91
2023/04/20 01:16:55;;;;;;;4.60;3.53;;;;;;;;;;5002523;28;20495;-91
2023/04/20 01:19:21;;;;;;;5.23;4.50;;;;;;;;;;5006069;28;20451;-91
2023/04/20 01:21:47;;;;;;;7.00;4.00;;;;;;;;;;5003023;28;20427;-91
2023/04/20 01:24:13;;;;;;;4.40;3.90;;;;;;;;;;5005635;28;20442;-91
2023/04/20 01:26:39;;;;;;;3.60;3.27;;;;;;;;;;4996571;28;20432;-91
2023/04/20 01:29:05;;;;;;;4.87;4.47;;;;;;;;;;5003701;28;20499;-90
2023/04/20 01:31:31;;;;;;;4.97;3.50;;;;;;;;;;4999346;28;20452;-91
2023/04/20 01:33:57;;;;;;;5.90;3.87;;;;;;;;;;5022569;28;20460;-91
2023/04/20 01:36:23;;;;;;;5.00;3.57;;;;;;;;;;5007935;28;20454;-90
2023/04/20 01:38:49;;;;;;;3.63;3.00;;;;;;;;;;5001774;28;20449;-90
2023/04/20 01:41:15;;;;;;;4.80;3.00;;;;;;;;;;5003085;28;20765;-90
2023/04/20 01:43:41;;;;;;;5.00;3.50;;;;;;;;;;5001332;28;20451;-91
2023/04/20 01:46:07;;;;;;;5.43;3.33;;;;;;;;;;5003935;28;20427;-91
2023/04/20 01:48:33;;;;;;;6.17;4.13;;;;;;;;;;5014777;28;20462;-91
2023/04/20 01:50:59;;;;;;;9.17;2.97;;;;;;;;;;5000993;28;20439;-91
2023/04/20 01:53:27;;;;;;;4.40;3.63;;;;;;;;;;5000290;28;20487;-92
2023/04/20 01:55:53;;;;;;;5.17;3.70;;;;;;;;;;5002074;28;20455;-90
2023/04/20 01:58:19;;;;;;;4.10;2.90;;;;;;;;;;4999397;28;21024;-89
2023/04/20 02:00:45;;;;;;;3.40;3.10;;;;;;;;;;5000262;28;20447;-91
2023/04/20 02:03:11;;;;;;;4.07;3.63;;;;;;;;;;5008475;28;20437;-91
2023/04/20 02:05:37;;;;;;;4.87;3.30;;;;;;;;;;5002913;28;20435;-92
2023/04/20 02:08:03;;;;;;;4.03;3.63;;;;;;;;;;4996482;28;20423;-91
2023/04/20 02:10:29;;;;;;;5.47;3.43;;;;;;;;;;5001857;28;21227;-91
2023/04/20 02:12:55;;;;;;;5.87;3.67;;;;;;;;;;5000687;28;20798;-92
2023/04/20 02:15:21;;;;;;;4.63;3.80;;;;;;;;;;4987077;28;20455;-93
2023/04/20 02:17:50;;;;;;;4.00;3.50;;;;;;;;;;5000462;28;20422;-92
2023/04/20 02:20:18;;;;;;;4.70;4.30;;;;;;;;;;5022715;28;20426;-92
2023/04/20 02:22:44;;;;;;;3.93;3.50;;;;;;;;;;5001644;28;20439;-90
2023/04/20 02:25:11;;;;;;;6.33;3.70;;;;;;;;;;5018763;28;20414;-90
2023/04/20 02:27:37;;;;;;;4.97;3.53;;;;;;;;;;4994325;28;20431;-90
2023/04/20 02:30:04;;;;;;;4.00;3.70;;;;;;;;;;5003163;28;21195;-91
2023/04/20 02:32:30;;;;;;;4.37;3.90;;;;;;;;;;5010190;28;20874;-92
2023/04/20 02:34:56;;;;;;;4.83;4.40;;;;;;;;;;5000816;28;20431;-92
2023/04/20 02:37:22;;;;;;;5.90;4.00;;;;;;;;;;5003648;28;20519;-90
2023/04/20 02:39:48;;;;;;;7.80;4.00;;;;;;;;;;4993140;28;20424;-90
2023/04/20 02:42:14;;;;;;;6.17;3.20;;;;;;;;;;5002461;28;20415;-91
2023/04/20 02:44:40;;;;;;;5.70;3.00;;;;;;;;;;5002614;28;20521;-91
2023/04/20 02:47:06;;;;;;;4.27;3.70;;;;;;;;;;5001504;28;20445;-91
2023/04/20 02:49:32;;;;;;;5.57;3.40;;;;;;;;;;5000367;28;20545;-90
2023/04/20 02:51:58;;;;;;;4.93;3.73;;;;;;;;;;5004212;28;20434;-91
2023/04/20 02:54:24;;;;;;;4.23;3.70;;;;;;;;;;5004439;28;21016;-91
2023/04/20 02:56:50;;;;;;;4.47;4.07;;;;;;;;;;4998541;28;20978;-91
2023/04/20 02:59:16;;;;;;;8.40;3.20;;;;;;;;;;5021392;28;20453;-91
2023/04/20 03:01:42;;;;;;;5.47;3.70;;;;;;;;;;5016478;28;20427;-90
2023/04/20 03:04:08;;;;;;;6.07;4.03;;;;;;;;;;4996858;28;20427;-92
2023/04/20 03:06:35;;;;;;;4.90;3.43;;;;;;;;;;4997516;28;20424;-91
2023/04/20 03:09:01;;;;;;;4.80;3.50;;;;;;;;;;4999222;28;20435;-92
2023/04/20 03:11:27;;;;;;;6.27;4.33;;;;;;;;;;5023805;28;20446;-90
2023/04/20 03:13:53;;;;;;;4.67;3.90;;;;;;;;;;4997314;28;20539;-91
2023/04/20 03:16:19;;;;;;;8.43;3.80;;;;;;;;;;5000226;28;20461;-90
2023/04/20 03:18:45;;;;;;;3.60;3.23;;;;;;;;;;5014150;28;20503;-91
2023/04/20 03:21:11;;;;;;;6.27;3.83;;;;;;;;;;5001558;28;20436;-90
2023/04/20 03:23:37;;;;;;;5.03;3.40;;;;;;;;;;4996163;28;20796;-90
2023/04/20 03:26:03;;;;;;;6.03;4.20;;;;;;;;;;4996886;28;20441;-90
2023/04/20 03:28:29;;;;;;;5.53;5.03;;;;;;;;;;4995612;28;20503;-92
2023/04/20 03:30:55;;;;;;;4.53;4.00;;;;;;;;;;5011486;28;20470;-91
2023/04/20 03:33:21;;;;;;;6.60;4.67;;;;;;;;;;4995372;28;21105;-91
2023/04/20 03:35:47;;;;;;;5.60;4.40;;;;;;;;;;5000460;28;20571;-90
2023/04/20 03:38:13;;;;;;;4.83;4.27;;;;;;;;;;4994834;28;20416;-90
2023/04/20 03:40:39;;;;;;;6.47;3.63;;;;;;;;;;4994653;28;20440;-91
2023/04/20 03:43:05;;;;;;;8.30;4.20;;;;;;;;;;4995147;28;20436;-91
2023/04/20 03:45:31;;;;;;;6.33;4.77;;;;;;;;;;4995458;28;20447;-91
2023/04/20 03:47:57;;;;;;;6.67;4.07;;;;;;;;;;4989572;28;20440;-91
2023/04/20 03:50:23;;;;;;;7.43;4.30;;;;;;;;;;4996098;28;20523;-91
2023/04/20 03:52:49;;;;;;;6.53;4.43;;;;;;;;;;4985038;28;20447;-91
2023/04/20 03:55:15;;;;;;;4.30;3.80;;;;;;;;;;5001970;28;20468;-90
2023/04/20 03:57:41;;;;;;;5.10;4.00;;;;;;;;;;4997734;28;20463;-91
2023/04/20 04:00:09;;;;;;;4.87;4.37;;;;;;;;;;5005857;28;20431;-92
2023/04/20 04:02:35;;;;;;;5.07;3.70;;;;;;;;;;5013363;28;20434;-90
2023/04/20 04:05:01;;;;;;;13.07;5.03;;;;;;;;;;5021855;28;20439;-91
2023/04/20 04:07:27;;;;;;;7.57;5.63;;;;;;;;;;5003656;28;20422;-91
2023/04/20 04:09:53;;;;;;;4.80;4.10;;;;;;;;;;5001660;28;20438;-91
2023/04/20 04:12:19;;;;;;;5.67;4.47;;;;;;;;;;5019560;28;20427;-91
2023/04/20 04:14:45;;;;;;;7.33;4.23;;;;;;;;;;5003323;28;20489;-91
2023/04/20 04:17:13;;;;;;;5.00;4.50;;;;;;;;;;5003731;28;20999;-91
2023/04/20 04:19:39;;;;;;;5.57;4.70;;;;;;;;;;5002671;28;20431;-91
2023/04/20 04:22:05;;;;;;;9.40;4.40;;;;;;;;;;5004287;28;20980;-91
2023/04/20 04:24:32;;;;;;;4.93;3.67;;;;;;;;;;5018969;28;20442;-91
2023/04/20 04:26:58;;;;;;;6.60;4.43;;;;;;;;;;4997914;28;20477;-89
2023/04/20 04:29:24;;;;;;;5.90;4.90;;;;;;;;;;5001210;28;20446;-90
2023/04/20 04:31:51;;;;;;;7.87;4.90;;;;;;;;;;5007658;28;20439;-91
2023/04/20 04:34:22;;;;;;;4.63;3.83;;;;;;;;;;5005024;28;20431;-91
2023/04/20 04:36:48;;;;;;;11.27;4.47;;;;;;;;;;5007657;28;20547;-91
2023/04/20 04:39:14;;;;;;;6.07;4.67;;;;;;;;;;4998540;28;20431;-91
2023/04/20 04:41:42;;;;;;;5.07;4.03;;;;;;;;;;5008742;28;20437;-93
2023/04/20 04:44:09;;;;;;;6.90;4.23;;;;;;;;;;5005522;28;20427;-91
2023/04/20 04:46:35;;;;;;;5.90;4.73;;;;;;;;;;5003937;28;20427;-90
2023/04/20 04:49:04;;;;;;;6.60;4.97;;;;;;;;;;5002258;28;20431;-92
2023/04/20 04:51:30;;;;;;;8.10;5.40;;;;;;;;;;4984229;28;20436;-91
2023/04/20 04:53:56;;;;;;;7.67;4.80;;;;;;;;;;4978815;28;20481;-92
2023/04/20 04:56:22;;;;;;;6.30;4.80;;;;;;;;;;4981022;28;21209;-92
2023/04/20 04:58:48;;;;;;;9.20;4.37;;;;;;;;;;4979861;28;20905;-89
2023/04/20 05:01:14;;;;;;;12.33;8.87;;;;;;;;;;4980090;28;20421;-89
2023/04/20 05:03:40;;;;;;;5.80;5.20;;;;;;;;;;4975856;28;20524;-86
2023/04/20 05:06:06;;;;;;;6.23;4.63;;;;;;;;;;4980010;28;20449;-87
2023/04/20 05:08:33;;;;;;;9.60;5.73;;;;;;;;;;4956766;28;20449;-86
2023/04/20 05:10:59;;;;;;;9.30;6.10;;;;;;;;;;4994221;28;20452;-86
2023/04/20 05:13:27;;;;;;;6.33;5.70;;;;;;;;;;4958019;28;20434;-86
2023/04/20 05:15:53;;;;;;;8.87;6.43;;;;;;;;;;4978128;28;20565;-86
2023/04/20 05:18:19;;;;;;;7.80;5.50;;;;;;;;;;4993807;28;20421;-87
2023/04/20 05:20:45;;;;;;;9.90;6.50;;;;;;;;;;4961306;28;20444;-87
2023/04/20 05:23:11;;;;;;;8.23;5.83;;;;;;;;;;4977311;28;20432;-89
2023/04/20 05:25:37;;;;;;;10.80;5.30;;;;;;;;;;4960015;28;20504;-88
2023/04/20 05:28:03;;;;;;;9.87;5.33;;;;;;;;;;4959853;28;21088;-88
2023/04/20 05:30:29;;;;;;;6.23;5.60;;;;;;;;;;5000359;28;20441;-88
2023/04/20 05:32:55;;;;;;;7.30;5.90;;;;;;;;;;4974290;28;20444;-89
2023/04/20 05:35:21;;;;;;;7.27;5.90;;;;;;;;;;4958993;28;20530;-89
2023/04/20 05:37:47;;;;;;;7.10;5.80;;;;;;;;;;4975491;28;20552;-89
2023/04/20 05:40:14;;;;;;;11.70;5.80;;;;;;;;;;4977794;28;20437;-88
2023/04/20 05:42:40;;;;;;;6.43;5.43;;;;;;;;;;4996296;28;20954;-89
2023/04/20 05:45:06;;;;;;;6.73;5.87;;;;;;;;;;5000541;28;20446;-89
2023/04/20 05:47:32;;;;;;;7.00;5.90;;;;;;;;;;4996248;28;20779;-90
2023/04/20 05:49:58;;;;;;;8.50;7.50;;;;;;;;;;5000029;28;20483;-89
2023/04/20 05:52:24;;;;;;;6.83;6.13;;;;;;;;;;5011881;28;20441;-89
2023/04/20 05:54:50;;;;;;;8.40;6.07;;;;;;;;;;4999158;28;20423;-89
2023/04/20 05:57:16;;;;;;;10.07;7.43;;;;;;;;;;4998450;28;20471;-89
2023/04/20 05:59:42;;;;;;;7.10;5.80;;;;;;;;;;5013489;28;20453;-88
2023/04/20 06:02:08;;;;;;;13.37;7.80;;;;;;;;;;5000382;28;20423;-88
2023/04/20 06:04:35;;;;;;;7.17;5.90;;;;;;;;;;5002412;28;20430;-88
2023/04/20 06:07:01;;;;;;;7.67;6.20;;;;;;;;;;5004874;28;20466;-88
2023/04/20 06:09:27;;;;;;;6.77;5.33;;;;;;;;;;5003555;28;20439;-88
2023/04/20 06:11:53;;;;;;;6.90;6.20;;;;;;;;;;5004547;28;21006;-90
2023/04/20 06:14:21;;;;;;;7.60;5.80;;;;;;;;;;5014380;28;20469;-87
2023/04/20 06:16:47;;;;;;;7.10;5.60;;;;;;;;;;5003039;28;20959;-88
2023/04/20 06:19:13;;;;;;;6.87;5.17;;;;;;;;;;5002512;28;20473;-88
2023/04/20 06:21:40;;;;;;;8.00;5.70;;;;;;;;;;4996998;28;20947;-89
2023/04/20 06:24:06;;;;;;;6.93;5.13;;;;;;;;;;5001053;28;20423;-89
2023/04/20 06:26:32;;;;;;;5.60;4.97;;;;;;;;;;5000234;28;20431;-89
2023/04/20 06:28:58;;;;;;;10.00;6.17;;;;;;;;;;5015789;28;20519;-88
2023/04/20 06:31:24;;;;;;;8.37;5.07;;;;;;;;;;5002508;28;20557;-88
2023/04/20 06:33:50;;;;;;;5.50;5.00;;;;;;;;;;5000132;28;20562;-89
2023/04/20 06:36:16;;;;;;;10.07;6.60;;;;;;;;;;4999880;28;20947;-89
2023/04/20 06:38:42;;;;;;;6.07;5.27;;;;;;;;;;5001456;28;20518;-86
2023/04/20 06:41:08;;;;;;;7.37;6.30;;;;;;;;;;5000171;28;20498;-88
2023/04/20 06:43:34;;;;;;;7.27;6.43;;;;;;;;;;4997237;28;20432;-88
2023/04/20 06:46:00;;;;;;;9.60;5.77;;;;;;;;;;5026650;28;20469;-91
2023/04/20 06:48:26;;;;;;;7.87;5.53;;;;;;;;;;5012528;28;20518;-88
2023/04/20 06:50:52;;;;;;;7.17;6.03;;;;;;;;;;4997647;28;22152;-88
2023/04/20 06:53:18;;;;;;;8.30;5.30;;;;;;;;;;5007567;28;20434;-88
2023/04/20 06:55:44;;;;;;;8.77;5.90;;;;;;;;;;5003263;28;20446;-87
2023/04/20 06:58:10;;;;;;;8.07;6.03;;;;;;;;;;5001179;28;20449;-90
2023/04/20 07:00:36;;;;;;;9.23;5.70;;;;;;;;;;5016205;28;20431;-90
2023/04/20 07:03:02;;;;;;;6.23;5.33;;;;;;;;;;5002415;28;21036;-89
2023/04/20 07:05:28;;;;;;;7.07;5.90;;;;;;;;;;5023535;28;20505;-87
2023/04/20 07:07:54;;;;;;;10.20;6.57;;;;;;;;;;5008460;28;20475;-88
2023/04/20 07:10:20;;;;;;;9.23;5.70;;;;;;;;;;5014840;28;20439;-88
2023/04/20 07:12:47;;;;;;;6.47;4.93;;;;;;;;;;4999678;28;20469;-89
2023/04/20 07:15:13;;;;;;;6.63;5.73;;;;;;;;;;4997739;28;21026;-88
2023/04/20 07:17:39;;;;;;;7.40;5.80;;;;;;;;;;4998324;28;20823;-87
2023/04/20 07:20:08;;;;;;;9.03;6.50;;;;;;;;;;4997670;28;20423;-88
2023/04/20 07:22:35;;;;;;;7.80;6.57;;;;;;;;;;5002029;28;20435;-88
2023/04/20 07:25:02;;;;;;;6.63;5.27;;;;;;;;;;5017363;28;20435;-88
2023/04/20 07:27:28;;;;;;;8.23;5.80;;;;;;;;;;5004629;28;20939;-92
2023/04/20 07:29:55;;;;;;;9.50;6.23;;;;;;;;;;4996202;28;20429;-88
2023/04/20 07:32:21;;;;;;;6.33;5.23;;;;;;;;;;5005590;28;20430;-89
2023/04/20 07:34:47;;;;;;;7.57;5.63;;;;;;;;;;5000770;28;20466;-88
2023/04/20 07:37:13;;;;;;;10.00;6.40;;;;;;;;;;4990838;28;20459;-88
2023/04/20 07:39:39;;;;;;;8.30;6.63;;;;;;;;;;5000532;28;20437;-88
2023/04/20 07:42:05;;;;;;;8.27;6.93;;;;;;;;;;4977778;28;20528;-88
2023/04/20 07:44:31;;;;;;;7.07;5.53;;;;;;;;;;4979669;28;20472;-89
2023/04/20 07:46:57;;;;;;;6.83;6.13;;;;;;;;;;4977361;28;20473;-89
2023/04/20 07:49:24;;;;;;;8.93;7.37;;;;;;;;;;4988374;28;20448;-88
2023/04/20 07:51:50;;;;;;;9.10;6.47;;;;;;;;;;4993714;28;20443;-89
2023/04/20 07:54:16;;;;;;;7.70;6.33;;;;;;;;;;4981885;28;20856;-89
2023/04/20 07:56:42;;;;;;;8.20;6.20;;;;;;;;;;4977366;28;20456;-89
2023/04/20 07:59:08;;;;;;;7.17;5.60;;;;;;;;;;4996726;28;20537;-89
2023/04/20 08:01:35;;;;;;;9.80;7.50;;;;;;;;;;4982354;28;20443;-89
2023/04/20 08:04:01;;;;;;;8.50;5.80;;;;;;;;;;4969052;28;20843;-88
2023/04/20 08:06:27;;;;;;;8.43;5.67;;;;;;;;;;4983874;28;20441;-87
2023/04/20 08:08:53;;;;;;;6.57;5.23;;;;;;;;;;4978789;28;20503;-87
2023/04/20 08:11:20;;;;;;;7.43;5.93;;;;;;;;;;4995846;28;20574;-88
2023/04/20 08:13:46;;;;;;;7.13;6.10;;;;;;;;;;5012673;28;20446;-87
2023/04/20 08:16:12;;;;;;;8.10;5.70;;;;;;;;;;4995215;28;20447;-87
2023/04/20 08:18:38;;;;;;;7.33;5.67;;;;;;;;;;4999528;28;20435;-87
2023/04/20 08:21:04;;;;;;;6.67;6.00;;;;;;;;;;4995708;28;20454;-87
2023/04/20 08:23:30;;;;;;;9.90;6.07;;;;;;;;;;4998012;28;20431;-87
2023/04/20 08:25:56;;;;;;;9.60;6.60;;;;;;;;;;5000089;28;20799;-88
2023/04/20 08:28:22;;;;;;;8.00;7.20;;;;;;;;;;4996040;28;20423;-88
2023/04/20 08:30:49;;;;;;;10.10;7.80;;;;;;;;;;4996038;28;20439;-89
2023/04/20 08:33:15;;;;;;;7.83;6.20;;;;;;;;;;5011579;28;20439;-88
2023/04/20 08:35:40;;;;;;;8.00;6.67;;;;;;;;;;5018736;28;20451;-88
2023/04/20 08:38:06;;;;;;;9.00;6.57;;;;;;;;;;4997899;28;20959;-88
2023/04/20 08:40:32;;;;;;;7.20;5.80;;;;;;;;;;5002034;28;20431;-87
2023/04/20 08:42:59;;;;;;;7.73;6.30;;;;;;;;;;4997834;28;20425;-86
2023/04/20 08:45:26;;;;;;;7.03;6.10;;;;;;;;;;4984017;28;20413;-86
2023/04/20 08:47:52;;;;;;;7.53;6.30;;;;;;;;;;4986529;28;20424;-86
2023/04/20 08:50:19;;;;;;;10.90;7.30;;;;;;;;;;5000679;28;20448;-88
2023/04/20 08:52:45;;;;;;;9.70;7.40;;;;;;;;;;4991379;28;20432;-89
2023/04/20 08:55:14;;;;;;;8.30;6.93;;;;;;;;;;4993796;28;20491;-88
2023/04/20 08:57:41;;;;;;;7.87;5.87;;;;;;;;;;4974414;28;20455;-88
2023/04/20 09:00:09;;;;;;;12.33;6.00;;;;;;;;;;4987063;28;21036;-88
2023/04/20 09:02:35;;;;;;;10.80;7.10;;;;;;;;;;4993040;28;20471;-87
2023/04/20 09:05:03;;;;;;;8.00;6.53;;;;;;;;;;4999924;28;20420;-88
2023/04/20 09:07:29;;;;;;;8.10;7.00;;;;;;;;;;4997348;28;20464;-87
2023/04/20 09:09:55;;;;;;;6.67;6.00;;;;;;;;;;4986325;28;21046;-86
2023/04/20 09:12:21;;;;;;;9.03;6.40;;;;;;;;;;4984626;28;21114;-87
2023/04/20 09:14:47;;;;;;;11.33;7.63;;;;;;;;;;5017444;28;20435;-86
2023/04/20 09:17:14;;;;;;;8.77;6.40;;;;;;;;;;4999868;28;20516;-87
2023/04/20 09:19:40;;;;;;;8.17;6.40;;;;;;;;;;4998237;28;21133;-87
2023/04/20 09:22:06;;;;;;;15.30;7.23;;;;;;;;;;5011163;28;20446;-87
2023/04/20 09:24:33;;;;;;;10.23;7.33;;;;;;;;;;5010027;28;20431;-87
2023/04/20 09:27:00;;;;;;;7.80;6.37;;;;;;;;;;5000761;28;20431;-85
2023/04/20 09:29:26;;;;;;;10.37;5.50;;;;;;;;;;4997233;28;20439;-86
2023/04/20 09:31:53;;;;;;;8.37;6.30;;;;;;;;;;4995694;28;20460;-87
2023/04/20 09:34:19;;;;;;;7.77;5.27;;;;;;;;;;5002449;28;20458;-86
2023/04/20 09:36:45;;;;;;;10.30;6.73;;;;;;;;;;4993060;28;20460;-87
2023/04/20 09:39:11;;;;;;;8.20;6.43;;;;;;;;;;5000834;28;20419;-86
2023/04/20 09:41:38;;;;;;;8.43;6.20;;;;;;;;;;5030356;28;20907;-86
2023/04/20 09:44:05;;;;;;;7.03;6.20;;;;;;;;;;5009215;28;20500;-86
2023/04/20 09:46:32;;;;;;;9.20;6.20;;;;;;;;;;5010037;28;20564;-86
2023/04/20 09:49:02;;;;;;;9.07;6.60;;;;;;;;;;5012051;28;20435;-86
2023/04/20 09:51:30;;;;;;;7.77;6.97;;;;;;;;;;5013117;28;20518;-87
2023/04/20 09:54:00;;;;;;;8.50;6.40;;;;;;;;;;4996840;28;20431;-87
2023/04/20 09:56:26;;;;;;;9.93;7.17;;;;;;;;;;5008094;28;20489;-88
2023/04/20 09:58:53;;;;;;;10.37;6.40;;;;;;;;;;4997879;28;20451;-86
2023/04/20 10:01:22;;;;;;;9.60;6.53;;;;;;;;;;4997750;28;20427;-87
2023/04/20 10:03:48;;;;;;;7.77;5.73;;;;;;;;;;5028411;28;20463;-88
2023/04/20 10:06:28;;;;;;;7.43;5.83;;;;;;;;;;4999879;28;20435;-88
2023/04/20 10:08:54;;;;;;;6.70;6.07;;;;;;;;;;4991070;28;20926;-88
2023/04/20 10:11:24;;;;;;;8.73;6.27;;;;;;;;;;5011033;28;21209;-87
2023/04/20 10:13:50;;;;;;;8.20;6.57;;;;;;;;;;4993420;28;20427;-87
2023/04/20 10:16:17;;;;;;;9.77;7.40;;;;;;;;;;5005284;28;20462;-88
2023/04/20 10:18:43;;;;;;;9.10;6.57;;;;;;;;;;4996511;28;20445;-89
2023/04/20 10:21:09;;;;;;;8.70;6.70;;;;;;;;;;4998884;28;20522;-87
2023/04/20 10:23:35;;;;;;;7.60;6.50;;;;;;;;;;4997154;28;20400;-88
2023/04/20 10:26:02;;;;;;;6.47;5.80;;;;;;;;;;5017596;28;20534;-88
2023/04/20 10:28:41;;;;;;;7.40;6.40;;;;;;;;;;4997616;28;20444;-88
2023/04/20 10:31:07;;;;;;;8.17;6.20;;;;;;;;;;5016293;28;20526;-87
2023/04/20 10:33:33;;;;;;;11.97;6.73;;;;;;;;;;5000029;28;20431;-87
2023/04/20 10:35:59;;;;;;;8.20;6.90;;;;;;;;;;4999561;28;20459;-89
2023/04/20 10:38:29;;;;;;;9.10;7.07;;;;;;;;;;5002711;28;20423;-88
2023/04/20 10:40:55;;;;;;;7.67;6.57;;;;;;;;;;5000999;28;20915;-88
2023/04/20 10:43:22;;;;;;;9.17;6.40;;;;;;;;;;5001214;28;20465;-88
2023/04/20 10:45:48;;;;;;;10.40;6.57;;;;;;;;;;4999242;28;20989;-89
2023/04/20 10:48:14;;;;;;;8.63;5.80;;;;;;;;;;4999750;28;20990;-87
2023/04/20 10:50:40;;;;;;;8.80;6.70;;;;;;;;;;5001329;28;20449;-88
2023/04/20 10:53:16;;;;;;;7.03;5.93;;;;;;;;;;5029120;28;20440;-88
2023/04/20 10:55:42;;;;;;;7.53;5.90;;;;;;;;;;5003179;28;20447;-88
2023/04/20 10:58:08;;;;;;;7.17;6.00;;;;;;;;;;4999572;28;20904;-88
2023/04/20 11:00:34;;;;;;;9.20;7.70;;;;;;;;;;4997446;28;20434;-88
2023/04/20 11:03:00;;;;;;;8.50;6.00;;;;;;;;;;5001155;28;20431;-88
2023/04/20 11:05:26;;;;;;;6.43;5.83;;;;;;;;;;5000178;28;20512;-88
2023/04/20 11:08:00;;;;;;;9.57;5.87;;;;;;;;;;5017367;28;20427;-88
2023/04/20 11:10:39;;;;;;;7.53;6.47;;;;;;;;;;5009591;28;20430;-89
2023/04/20 11:13:06;;;;;;;8.80;4.70;;;;;;;;;;5000218;28;20423;-89
2023/04/20 11:15:32;;;;;;;6.53;5.93;;;;;;;;;;5000142;28;20426;-88
2023/04/20 11:18:08;;;;;;;9.57;5.30;;;;;;;;;;4999542;28;20442;-89
2023/04/20 11:20:35;;;;;;;7.60;6.07;;;;;;;;;;4987707;28;20981;-90
2023/04/20 11:23:03;;;;;;;9.60;5.70;;;;;;;;;;4998382;28;20424;-87
2023/04/20 11:25:29;;;;;;;5.87;5.20;;;;;;;;;;4997958;28;20958;-89
2023/04/20 11:28:16;;;;;;;6.37;5.63;;;;;;;;;;5019656;28;20449;-88
2023/04/20 11:30:42;;;;;;;8.00;6.57;;;;;;;;;;4997192;28;20499;-89
2023/04/20 11:33:08;;;;;;;9.27;7.13;;;;;;;;;;4993133;28;20427;-88
2023/04/20 11:35:37;;;;;;;7.50;5.80;;;;;;;;;;5017754;28;20466;-87
2023/04/20 11:38:04;;;;;;;7.40;5.40;;;;;;;;;;4996534;28;20492;-88
2023/04/20 11:40:30;;;;;;;7.97;6.40;;;;;;;;;;5017124;28;20434;-88
2023/04/20 11:42:56;;;;;;;8.50;6.27;;;;;;;;;;5002083;28;20441;-87
2023/04/20 11:45:22;;;;;;;7.27;5.90;;;;;;;;;;5000675;28;20469;-87
2023/04/20 11:47:49;;;;;;;8.60;6.70;;;;;;;;;;4999070;28;20492;-87
2023/04/20 11:50:15;;;;;;;10.30;6.67;;;;;;;;;;5001033;28;20442;-88
2023/04/20 11:52:44;;;;;;;10.20;6.63;;;;;;;;;;5000216;28;20416;-88
2023/04/20 11:55:11;;;;;;;7.70;6.20;;;;;;;;;;5001078;28;20447;-88
2023/04/20 11:57:37;;;;;;;10.93;7.30;;;;;;;;;;5000994;28;20580;-88
2023/04/20 12:00:03;;;;;;;9.80;7.23;;;;;;;;;;5002142;28;20522;-88
2023/04/20 12:02:29;;;;;;;9.77;7.17;;;;;;;;;;5017622;28;20499;-88
2023/04/20 12:04:55;;;;;;;9.80;7.30;;;;;;;;;;5002783;28;20407;-89
2023/04/20 12:07:22;;;;;;;10.40;8.27;;;;;;;;;;4998751;28;20438;-88
2023/04/20 12:09:48;;;;;;;8.20;7.40;;;;;;;;;;5013727;28;20871;-88
2023/04/20 12:12:14;;;;;;;8.30;6.00;;;;;;;;;;4997781;28;20517;-88
2023/04/20 12:14:40;;;;;;;9.20;7.07;;;;;;;;;;5008954;28;20434;-89
2023/04/20 12:17:06;;;;;;;9.87;7.40;;;;;;;;;;5008169;28;20462;-88
2023/04/20 12:19:32;;;;;;;10.57;6.67;;;;;;;;;;5020948;28;20414;-89
2023/04/20 12:21:58;;;;;;;8.50;7.07;;;;;;;;;;5003287;28;20935;-89
2023/04/20 12:24:24;;;;;;;8.90;6.93;;;;;;;;;;5003487;28;20418;-89
2023/04/20 12:26:50;;;;;;;10.47;8.13;;;;;;;;;;5003099;28;20811;-88
2023/04/20 12:29:16;;;;;;;9.10;6.80;;;;;;;;;;5019166;28;20439;-89
2023/04/20 12:31:42;;;;;;;8.63;6.83;;;;;;;;;;5006287;28;20431;-88
2023/04/20 12:34:08;;;;;;;9.53;7.07;;;;;;;;;;5003834;28;20442;-89
2023/04/20 12:36:35;;;;;;;10.10;7.40;;;;;;;;;;5005950;28;20459;-88
2023/04/20 12:39:02;;;;;;;9.73;8.10;;;;;;;;;;5003047;28;20435;-88
2023/04/20 12:41:28;;;;;;;9.23;7.90;;;;;;;;;;5009130;28;20515;-88
2023/04/20 12:43:54;;;;;;;11.50;8.07;;;;;;;;;;5016014;28;20459;-89
2023/04/20 12:46:20;;;;;;;11.30;8.00;;;;;;;;;;5002620;28;20431;-90
2023/04/20 12:48:46;;;;;;;10.10;8.43;;;;;;;;;;5000959;28;20585;-89
2023/04/20 12:51:12;;;;;;;10.27;8.80;;;;;;;;;;5003956;28;20468;-89
2023/04/20 12:53:38;;;;;;;9.83;7.50;;;;;;;;;;5002828;28;20530;-88
2023/04/20 12:56:05;;;;;;;11.33;7.53;;;;;;;;;;5011012;28;20481;-89
2023/04/20 12:58:31;;;;;;;8.13;7.07;;;;;;;;;;5021676;28;20433;-88
2023/04/20 13:00:57;;;;;;;11.13;5.80;;;;;;;;;;5008231;28;20506;-89
2023/04/20 13:03:23;;;;;;;8.90;6.73;;;;;;;;;;5011016;28;20434;-89
2023/04/20 13:05:50;;;;;;;7.80;6.57;;;;;;;;;;5018980;28;20490;-89
2023/04/20 13:08:16;;;;;;;7.43;6.20;;;;;;;;;;5015222;28;20439;-89
2023/04/20 13:10:42;;;;;;;10.93;7.80;;;;;;;;;;5005266;28;20563;-89
2023/04/20 13:13:08;;;;;;;7.67;6.27;;;;;;;;;;5015153;28;20430;-89
2023/04/20 13:15:35;;;;;;;11.13;7.30;;;;;;;;;;5018236;28;21191;-89
2023/04/20 13:18:01;;;;;;;7.70;6.03;;;;;;;;;;5015859;28;20462;-89
2023/04/20 13:20:29;;;;;;;8.07;5.67;;;;;;;;;;5001952;28;20442;-89
2023/04/20 13:23:01;;;;;;;6.73;5.53;;;;;;;;;;5001564;28;20446;-88
2023/04/20 13:25:27;;;;;;;8.60;6.20;;;;;;;;;;5033896;28;20434;-89
2023/04/20 13:27:54;;;;;;;9.87;6.20;;;;;;;;;;5002800;28;20427;-88
2023/04/20 13:30:20;;;;;;;6.97;5.30;;;;;;;;;;5022311;28;20797;-89
2023/04/20 13:32:46;;;;;;;7.03;5.37;;;;;;;;;;5025784;28;20423;-88
2023/04/20 13:35:13;;;;;;;5.83;5.23;;;;;;;;;;5010011;28;20431;-88
2023/04/20 13:37:39;;;;;;;8.47;5.53;;;;;;;;;;5000958;28;20467;-88
2023/04/20 13:40:08;;;;;;;5.60;4.77;;;;;;;;;;5000422;28;20460;-89
2023/04/20 13:42:34;;;;;;;9.27;5.77;;;;;;;;;;5044660;28;20446;-88
2023/04/20 13:45:00;;;;;;;7.30;5.50;;;;;;;;;;5012210;28;20425;-91
2023/04/20 13:47:28;;;;;;;8.57;6.33;;;;;;;;;;5001532;28;20487;-92
2023/04/20 13:49:54;;;;;;;7.17;5.40;;;;;;;;;;5000311;28;20439;-92
2023/04/20 13:52:20;;;;;;;7.27;5.47;;;;;;;;;;5003478;28;20432;-93
2023/04/20 13:54:46;;;;;;;7.20;5.70;;;;;;;;;;5006144;28;20442;-91
2023/04/20 13:57:12;;;;;;;7.70;6.10;;;;;;;;;;5013042;28;20463;-91
2023/04/20 13:59:38;;;;;;;7.83;4.80;;;;;;;;;;4999970;28;20504;-92
2023/04/20 14:02:04;;;;;;;7.73;5.30;;;;;;;;;;5003353;28;20442;-91
2023/04/20 14:04:30;;;;;;;6.37;5.40;;;;;;;;;;5000040;28;20427;-91
2023/04/20 14:06:56;;;;;;;7.30;5.70;;;;;;;;;;5011757;28;20496;-91
2023/04/20 14:09:22;;;;;;;9.93;6.13;;;;;;;;;;5011106;28;20438;-91
2023/04/20 14:11:48;;;;;;;8.83;5.10;;;;;;;;;;5001923;28;20486;-91
2023/04/20 14:14:14;;;;;;;7.70;5.87;;;;;;;;;;5005620;28;20435;-92
2023/04/20 14:16:47;;;;;;;7.90;6.23;;;;;;;;;;5003171;28;21302;-89
2023/04/20 14:19:13;;;;;;;6.10;5.50;;;;;;;;;;5006662;28;20458;-89
2023/04/20 14:21:39;;;;;;;6.97;6.27;;;;;;;;;;5005841;28;20465;-89
2023/04/20 14:24:06;;;;;;;5.93;5.30;;;;;;;;;;5005376;28;20484;-89
2023/04/20 14:26:32;;;;;;;8.30;6.63;;;;;;;;;;5001007;28;20436;-88
2023/04/20 14:28:58;;;;;;;7.87;6.93;;;;;;;;;;5001953;28;20439;-88
2023/04/20 14:31:24;;;;;;;10.03;6.90;;;;;;;;;;4999768;28;20529;-88
2023/04/20 14:33:50;;;;;;;8.70;6.20;;;;;;;;;;5000304;28;20446;-89
2023/04/20 14:36:18;;;;;;;6.63;5.93;;;;;;;;;;5005856;28;20806;-89